sensor_id;sensor_type;location;lat;lon;timestamp;pressure;altitude;pressure_sealevel;temperature;humidity
78123;BME280;67376;44.802;10.332;2023-05-02T00:00:57;100816.66;;;20.23;54.80
78123;BME280;67376;44.802;10.332;2023-05-02T00:03:23;100821.88;;;20.24;55.23
78123;BME280;67376;44.802;10.332;2023-05-02T00:05:49;100815.63;;;20.24;55.32
78123;BME280;67376;44.802;10.332;2023-05-02T00:08:15;100812.06;;;20.23;55.40
78123;BME280;67376;44.802;10.332;2023-05-02T00:10:40;100812.34;;;20.22;55.43
78123;BME280;67376;44.802;10.332;2023-05-02T00:13:06;100803.38;;;20.21;54.59
78123;BME280;67376;44.802;10.332;2023-05-02T00:15:31;100804.22;;;20.22;54.79
78123;BME280;67376;44.802;10.332;2023-05-02T00:17:57;100792.53;;;20.21;55.52
78123;BME280;67376;44.802;10.332;2023-05-02T00:20:22;100795.25;;;20.21;55.05
78123;BME280;67376;44.802;10.332;2023-05-02T00:22:47;100790.66;;;20.22;55.30
78123;BME280;67376;44.802;10.332;2023-05-02T00:25:13;100780.28;;;20.19;55.11
78123;BME280;67376;44.802;10.332;2023-05-02T00:27:40;100785.47;;;20.20;54.89
78123;BME280;67376;44.802;10.332;2023-05-02T00:30:07;100778.97;;;20.21;55.24
78123;BME280;67376;44.802;10.332;2023-05-02T00:32:33;100771.91;;;20.20;54.98
78123;BME280;67376;44.802;10.332;2023-05-02T00:34:58;100782.75;;;20.20;55.60
78123;BME280;67376;44.802;10.332;2023-05-02T00:37:27;100784.63;;;20.20;54.56
78123;BME280;67376;44.802;10.332;2023-05-02T00:39:55;100773.78;;;20.20;55.36
78123;BME280;67376;44.802;10.332;2023-05-02T00:42:20;100780.03;;;20.20;55.10
78123;BME280;67376;44.802;10.332;2023-05-02T00:44:46;100766.72;;;20.19;55.47
78123;BME280;67376;44.802;10.332;2023-05-02T00:47:13;100767.53;;;20.19;55.08
78123;BME280;67376;44.802;10.332;2023-05-02T00:49:39;100772.38;;;20.17;54.68
78123;BME280;67376;44.802;10.332;2023-05-02T00:52:04;100767.53;;;20.19;54.68
78123;BME280;67376;44.802;10.332;2023-05-02T00:54:30;100766.72;;;20.19;55.46
78123;BME280;67376;44.802;10.332;2023-05-02T00:56:56;100762.94;;;20.20;55.01
78123;BME280;67376;44.802;10.332;2023-05-02T00:59:21;100767.53;;;20.19;54.57
78123;BME280;67376;44.802;10.332;2023-05-02T01:01:54;100753.41;;;20.17;55.08
78123;BME280;67376;44.802;10.332;2023-05-02T01:13:07;100748.56;;;20.19;54.70
78123;BME280;67376;44.802;10.332;2023-05-02T01:15:36;100744.44;;;20.17;55.30
78123;BME280;67376;44.802;10.332;2023-05-02T01:18:03;100740.91;;;20.16;55.36
78123;BME280;67376;44.802;10.332;2023-05-02T01:20:32;100744.69;;;20.15;55.33
78123;BME280;67376;44.802;10.332;2023-05-02T01:23:05;100743.38;;;20.18;55.18
78123;BME280;67376;44.802;10.332;2023-05-02T01:26:02;100736.31;;;20.17;54.85
78123;BME280;67376;44.802;10.332;2023-05-02T01:28:59;100732.78;;;20.16;54.48
78123;BME280;67376;44.802;10.332;2023-05-02T01:31:28;100734.66;;;20.16;55.13
78123;BME280;67376;44.802;10.332;2023-05-02T01:33:55;100735.47;;;20.16;55.05
78123;BME280;67376;44.802;10.332;2023-05-02T01:36:24;100735.47;;;20.16;55.36
78123;BME280;67376;44.802;10.332;2023-05-02T01:38:54;100736.53;;;20.15;54.60
78123;BME280;67376;44.802;10.332;2023-05-02T01:41:24;100741.13;;;20.15;55.06
78123;BME280;67376;44.802;10.332;2023-05-02T01:43:50;100750.09;;;20.15;54.85
78123;BME280;67376;44.802;10.332;2023-05-02T01:46:19;100750.31;;;20.14;55.24
78123;BME280;67376;44.802;10.332;2023-05-02T01:48:47;100756.56;;;20.14;55.02
78123;BME280;67376;44.802;10.332;2023-05-02T01:51:14;100750.31;;;20.14;55.18
78123;BME280;67376;44.802;10.332;2023-05-02T01:53:42;100747.63;;;20.14;55.36
78123;BME280;67376;44.802;10.332;2023-05-02T01:56:08;100743.03;;;20.14;54.92
78123;BME280;67376;44.802;10.332;2023-05-02T01:58:35;100733.47;;;20.11;55.00
78123;BME280;67376;44.802;10.332;2023-05-02T02:01:01;100739.50;;;20.14;54.69
78123;BME280;67376;44.802;10.332;2023-05-02T02:03:29;100731.34;;;20.14;54.50
78123;BME280;67376;44.802;10.332;2023-05-02T02:05:55;100735.94;;;20.13;54.46
78123;BME280;67376;44.802;10.332;2023-05-02T02:08:23;100740.56;;;20.13;54.75
78123;BME280;67376;44.802;10.332;2023-05-02T02:10:53;100742.44;;;20.12;54.87
78123;BME280;67376;44.802;10.332;2023-05-02T02:13:34;100741.00;;;20.09;55.04
78123;BME280;67376;44.802;10.332;2023-05-02T02:16:03;100744.31;;;20.11;54.80
78123;BME280;67376;44.802;10.332;2023-05-02T02:18:35;100731.59;;;20.12;54.83
78123;BME280;67376;44.802;10.332;2023-05-02T02:21:01;100732.88;;;20.09;54.83
78123;BME280;67376;44.802;10.332;2023-05-02T02:23:32;100730.75;;;20.11;55.36
78123;BME280;67376;44.802;10.332;2023-05-02T02:25:57;100718.28;;;20.10;55.08
78123;BME280;67376;44.802;10.332;2023-05-02T02:28:24;100715.56;;;20.10;54.87
78123;BME280;67376;44.802;10.332;2023-05-02T02:30:50;100711.78;;;20.11;54.56
78123;BME280;67376;44.802;10.332;2023-05-02T02:33:15;100713.69;;;20.11;54.43
78123;BME280;67376;44.802;10.332;2023-05-02T02:35:47;100717.22;;;20.11;54.49
78123;BME280;67376;44.802;10.332;2023-05-02T02:40:56;100722.63;;;20.11;55.00
78123;BME280;67376;44.802;10.332;2023-05-02T02:46:29;100729.13;;;20.10;55.31
78123;BME280;67376;44.802;10.332;2023-05-02T02:51:46;100739.13;;;20.10;54.53
78123;BME280;67376;44.802;10.332;2023-05-02T02:57:29;100731.22;;;20.08;54.44
78123;BME280;67376;44.802;10.332;2023-05-02T03:00:08;100723.09;;;20.08;55.29
78123;BME280;67376;44.802;10.332;2023-05-02T03:02:36;100716.03;;;20.07;55.49
78123;BME280;67376;44.802;10.332;2023-05-02T03:05:03;100716.03;;;20.07;55.28
78123;BME280;67376;44.802;10.332;2023-05-02T03:07:30;100707.91;;;20.07;54.99
78123;BME280;67376;44.802;10.332;2023-05-02T03:09:55;100724.97;;;20.08;55.32
78123;BME280;67376;44.802;10.332;2023-05-02T03:12:21;100723.09;;;20.08;55.25
78123;BME280;67376;44.802;10.332;2023-05-02T03:14:47;100727.94;;;20.06;55.29
78123;BME280;67376;44.802;10.332;2023-05-02T03:17:12;100721.91;;;20.04;55.20
78123;BME280;67376;44.802;10.332;2023-05-02T03:19:37;100721.69;;;20.06;54.68
78123;BME280;67376;44.802;10.332;2023-05-02T03:22:03;100726.28;;;20.05;55.15
78123;BME280;67376;44.802;10.332;2023-05-02T03:24:29;100720.50;;;20.02;54.46
78123;BME280;67376;44.802;10.332;2023-05-02T03:26:55;100726.28;;;20.05;55.28
78123;BME280;67376;44.802;10.332;2023-05-02T03:29:21;100716.50;;;20.04;55.14
78123;BME280;67376;44.802;10.332;2023-05-02T03:31:47;100712.97;;;20.04;55.39
78123;BME280;67376;44.802;10.332;2023-05-02T03:34:12;100715.66;;;20.04;54.42
78123;BME280;67376;44.802;10.332;2023-05-02T03:36:38;100729.22;;;20.04;55.36
78123;BME280;67376;44.802;10.332;2023-05-02T03:39:03;100733.00;;;20.03;55.14
78123;BME280;67376;44.802;10.332;2023-05-02T03:41:28;100735.94;;;20.01;54.57
78123;BME280;67376;44.802;10.332;2023-05-02T03:43:54;100738.63;;;20.01;54.41
78123;BME280;67376;44.802;10.332;2023-05-02T03:46:20;100746.53;;;20.03;54.39
78123;BME280;67376;44.802;10.332;2023-05-02T03:48:45;100737.59;;;20.02;54.71
78123;BME280;67376;44.802;10.332;2023-05-02T03:51:11;100736.75;;;20.02;55.16
78123;BME280;67376;44.802;10.332;2023-05-02T03:53:37;100743.59;;;20.04;54.92
78123;BME280;67376;44.802;10.332;2023-05-02T03:56:03;100743.00;;;20.02;54.69
78123;BME280;67376;44.802;10.332;2023-05-02T03:58:28;100738.41;;;20.03;54.39
78123;BME280;67376;44.802;10.332;2023-05-02T04:00:53;100737.59;;;20.02;55.24
78123;BME280;67376;44.802;10.332;2023-05-02T04:03:20;100739.47;;;20.02;54.64
78123;BME280;67376;44.802;10.332;2023-05-02T04:05:45;100740.53;;;20.01;54.62
78123;BME280;67376;44.802;10.332;2023-05-02T04:08:11;100732.41;;;20.01;54.17
78123;BME280;67376;44.802;10.332;2023-05-02T04:10:37;100741.59;;;20.00;54.75
78123;BME280;67376;44.802;10.332;2023-05-02T04:13:03;100751.59;;;19.99;54.37
78123;BME280;67376;44.802;10.332;2023-05-02T04:15:30;100748.88;;;19.99;54.79
78123;BME280;67376;44.802;10.332;2023-05-02T04:17:58;100748.66;;;20.01;55.37
78123;BME280;67376;44.802;10.332;2023-05-02T04:20:24;100747.00;;;20.00;54.35
78123;BME280;67376;44.802;10.332;2023-05-02T04:22:49;100755.13;;;20.00;55.32
78123;BME280;67376;44.802;10.332;2023-05-02T04:25:15;100752.66;;;19.98;55.32
78123;BME280;67376;44.802;10.332;2023-05-02T04:27:41;100752.66;;;19.98;54.50
78123;BME280;67376;44.802;10.332;2023-05-02T04:30:07;100755.59;;;19.97;54.84
78123;BME280;67376;44.802;10.332;2023-05-02T04:32:34;100758.31;;;19.97;54.39
78123;BME280;67376;44.802;10.332;2023-05-02T04:34:59;100754.53;;;19.98;55.30
78123;BME280;67376;44.802;10.332;2023-05-02T04:37:24;100765.50;;;20.03;54.39
78123;BME280;67376;44.802;10.332;2023-05-02T04:39:50;100770.34;;;20.01;54.37
78123;BME280;67376;44.802;10.332;2023-05-02T04:42:15;100779.53;;;20.00;54.40
78123;BME280;67376;44.802;10.332;2023-05-02T04:44:41;100787.06;;;19.98;55.32
78123;BME280;67376;44.802;10.332;2023-05-02T04:47:06;100792.72;;;19.96;54.85
78123;BME280;67376;44.802;10.332;2023-05-02T04:49:31;100801.06;;;19.95;54.86
78123;BME280;67376;44.802;10.332;2023-05-02T04:51:57;100794.22;;;19.92;55.02
78123;BME280;67376;44.802;10.332;2023-05-02T04:54:23;100796.72;;;19.94;55.02
78123;BME280;67376;44.802;10.332;2023-05-02T04:56:48;100805.44;;;19.96;55.08
78123;BME280;67376;44.802;10.332;2023-05-02T04:59:13;100800.47;;;19.93;55.05
78123;BME280;67376;44.802;10.332;2023-05-02T05:01:39;100821.31;;;19.92;54.80
78123;BME280;67376;44.802;10.332;2023-05-02T05:04:04;100822.38;;;19.91;55.69
78123;BME280;67376;44.802;10.332;2023-05-02T05:06:30;100833.22;;;19.91;54.78
78123;BME280;67376;44.802;10.332;2023-05-02T05:08:56;100831.34;;;19.92;54.75
78123;BME280;67376;44.802;10.332;2023-05-02T05:11:21;100842.19;;;19.92;55.11
78123;BME280;67376;44.802;10.332;2023-05-02T05:13:47;100843.38;;;19.96;55.67
78123;BME280;67376;44.802;10.332;2023-05-02T05:16:12;100849.63;;;19.96;55.06
78123;BME280;67376;44.802;10.332;2023-05-02T05:18:38;100845.84;;;19.97;55.32
78123;BME280;67376;44.802;10.332;2023-05-02T05:21:07;100868.13;;;19.99;55.02
78123;BME280;67376;44.802;10.332;2023-05-02T05:23:33;100860.00;;;19.99;54.56
78123;BME280;67376;44.802;10.332;2023-05-02T05:26:09;100861.66;;;20.00;54.58
78123;BME280;67376;44.802;10.332;2023-05-02T05:28:34;100866.03;;;20.01;54.62
78123;BME280;67376;44.802;10.332;2023-05-02T05:31:07;100878.97;;;19.99;55.11
78123;BME280;67376;44.802;10.332;2023-05-02T05:33:33;100881.69;;;19.99;54.98
78123;BME280;67376;44.802;10.332;2023-05-02T05:36:09;100876.84;;;20.01;54.64
78123;BME280;67376;44.802;10.332;2023-05-02T05:38:35;100878.75;;;20.01;54.73
78123;BME280;67376;44.802;10.332;2023-05-02T05:41:01;100881.44;;;20.01;55.01
78123;BME280;67376;44.802;10.332;2023-05-02T05:43:27;100886.03;;;20.00;54.92
78123;BME280;67376;44.802;10.332;2023-05-02T05:45:53;100888.38;;;19.97;55.73
78123;BME280;67376;44.802;10.332;2023-05-02T05:48:19;100897.72;;;20.01;55.35
78123;BME280;67376;44.802;10.332;2023-05-02T05:50:45;100900.66;;;19.99;55.34
78123;BME280;67376;44.802;10.332;2023-05-02T05:53:11;100887.78;;;19.95;55.89
78123;BME280;67376;44.802;10.332;2023-05-02T05:55:36;100897.19;;;19.92;55.49
78123;BME280;67376;44.802;10.332;2023-05-02T05:58:03;100906.84;;;19.88;55.36
78123;BME280;67376;44.802;10.332;2023-05-02T06:00:28;100913.16;;;19.82;55.17
78123;BME280;67376;44.802;10.332;2023-05-02T06:02:54;100920.69;;;19.80;55.33
78123;BME280;67376;44.802;10.332;2023-05-02T06:05:19;100937.41;;;19.77;55.67
78123;BME280;67376;44.802;10.332;2023-05-02T06:07:45;100933.50;;;19.73;55.66
78123;BME280;67376;44.802;10.332;2023-05-02T06:10:10;100936.66;;;19.70;55.44
78123;BME280;67376;44.802;10.332;2023-05-02T06:12:36;100931.69;;;19.67;55.91
78123;BME280;67376;44.802;10.332;2023-05-02T06:15:01;100937.94;;;19.67;55.43
78123;BME280;67376;44.802;10.332;2023-05-02T06:17:26;100939.53;;;18.64;58.54
78123;BME280;67376;44.802;10.332;2023-05-02T06:19:52;100934.81;;;17.83;60.68
78123;BME280;67376;44.802;10.332;2023-05-02T06:22:17;100941.00;;;17.12;63.80
78123;BME280;67376;44.802;10.332;2023-05-02T06:24:43;100937.78;;;17.68;62.78
78123;BME280;67376;44.802;10.332;2023-05-02T06:27:08;100939.69;;;17.99;61.31
78123;BME280;67376;44.802;10.332;2023-05-02T06:29:33;100939.69;;;18.44;60.08
78123;BME280;67376;44.802;10.332;2023-05-02T06:31:59;100942.81;;;18.72;58.41
78123;BME280;67376;44.802;10.332;2023-05-02T06:34:24;100944.09;;;18.95;58.35
78123;BME280;67376;44.802;10.332;2023-05-02T06:36:56;100947.03;;;19.11;57.81
78123;BME280;67376;44.802;10.332;2023-05-02T06:39:21;100950.06;;;19.22;57.37
78123;BME280;67376;44.802;10.332;2023-05-02T06:41:46;100951.44;;;19.31;56.51
78123;BME280;67376;44.802;10.332;2023-05-02T06:44:12;100958.44;;;19.38;55.99
78123;BME280;67376;44.802;10.332;2023-05-02T06:46:38;100959.88;;;19.41;56.60
78123;BME280;67376;44.802;10.332;2023-05-02T06:49:03;100958.38;;;19.45;55.84
78123;BME280;67376;44.802;10.332;2023-05-02T06:51:29;100963.97;;;19.50;56.05
78123;BME280;67376;44.802;10.332;2023-05-02T06:53:55;100963.53;;;19.53;56.19
78123;BME280;67376;44.802;10.332;2023-05-02T06:56:20;100963.31;;;19.55;55.41
78123;BME280;67376;44.802;10.332;2023-05-02T06:58:46;100965.81;;;19.56;55.48
78123;BME280;67376;44.802;10.332;2023-05-02T07:01:11;100974.53;;;19.58;55.24
78123;BME280;67376;44.802;10.332;2023-05-02T07:03:37;100976.19;;;19.59;55.44
78123;BME280;67376;44.802;10.332;2023-05-02T07:06:02;100972.66;;;19.59;55.27
78123;BME280;67376;44.802;10.332;2023-05-02T07:08:27;100967.00;;;19.60;55.48
78123;BME280;67376;44.802;10.332;2023-05-02T07:10:53;100981.97;;;19.63;55.93
78123;BME280;67376;44.802;10.332;2023-05-02T07:13:18;100980.94;;;19.64;55.47
78123;BME280;67376;44.802;10.332;2023-05-02T07:15:44;100975.50;;;19.64;55.15
78123;BME280;67376;44.802;10.332;2023-05-02T07:18:09;100974.44;;;19.65;55.26
78123;BME280;67376;44.802;10.332;2023-05-02T07:20:34;100971.72;;;19.65;55.23
78123;BME280;67376;44.802;10.332;2023-05-02T07:23:00;100979.63;;;19.66;55.35
78123;BME280;67376;44.802;10.332;2023-05-02T07:25:25;100975.84;;;19.67;55.33
78123;BME280;67376;44.802;10.332;2023-05-02T07:27:51;100973.97;;;19.68;55.29
78123;BME280;67376;44.802;10.332;2023-05-02T07:30:16;100973.75;;;19.69;54.63
78123;BME280;67376;44.802;10.332;2023-05-02T07:32:42;100977.06;;;19.71;55.03
78123;BME280;67376;44.802;10.332;2023-05-02T07:35:07;100979.78;;;19.71;55.64
78123;BME280;67376;44.802;10.332;2023-05-02T07:37:33;100972.69;;;19.70;55.03
78123;BME280;67376;44.802;10.332;2023-05-02T07:40:02;100971.41;;;19.73;54.74
78123;BME280;67376;44.802;10.332;2023-05-02T07:42:30;100977.91;;;19.72;54.61
78123;BME280;67376;44.802;10.332;2023-05-02T07:44:57;100984.13;;;19.72;55.22
78123;BME280;67376;44.802;10.332;2023-05-02T07:47:23;100982.25;;;19.73;54.73
78123;BME280;67376;44.802;10.332;2023-05-02T07:49:52;100983.91;;;19.74;55.50
78123;BME280;67376;44.802;10.332;2023-05-02T07:52:19;100976.00;;;19.72;54.60
78123;BME280;67376;44.802;10.332;2023-05-02T07:54:44;100980.38;;;19.73;55.26
78123;BME280;67376;44.802;10.332;2023-05-02T07:57:11;100986.41;;;19.75;55.33
78123;BME280;67376;44.802;10.332;2023-05-02T07:59:37;100984.75;;;19.74;55.25
78123;BME280;67376;44.802;10.332;2023-05-02T08:02:03;100981.22;;;19.74;54.50
78123;BME280;67376;44.802;10.332;2023-05-02T08:04:29;100978.50;;;19.74;55.12
78123;BME280;67376;44.802;10.332;2023-05-02T08:06:54;100990.75;;;19.76;54.81
78123;BME280;67376;44.802;10.332;2023-05-02T08:09:20;100989.09;;;19.75;55.07
78123;BME280;67376;44.802;10.332;2023-05-02T08:11:45;100994.53;;;19.75;55.40
78123;BME280;67376;44.802;10.332;2023-05-02T08:14:11;100991.59;;;19.77;54.45
78123;BME280;67376;44.802;10.332;2023-05-02T08:16:36;100987.84;;;19.78;54.41
78123;BME280;67376;44.802;10.332;2023-05-02T08:19:02;100997.63;;;19.79;55.14
78123;BME280;67376;44.802;10.332;2023-05-02T08:21:27;100992.19;;;19.79;54.90
78123;BME280;67376;44.802;10.332;2023-05-02T08:23:57;100995.50;;;19.81;55.34
78123;BME280;67376;44.802;10.332;2023-05-02T08:26:22;100994.91;;;19.79;54.58
78123;BME280;67376;44.802;10.332;2023-05-02T08:28:50;100999.50;;;19.78;54.51
78123;BME280;67376;44.802;10.332;2023-05-02T08:31:15;101009.28;;;19.79;55.38
78123;BME280;67376;44.802;10.332;2023-05-02T08:33:40;101008.44;;;19.79;54.84
78123;BME280;67376;44.802;10.332;2023-05-02T08:36:13;101004.47;;;19.82;54.43
78123;BME280;67376;44.802;10.332;2023-05-02T08:38:40;101002.81;;;19.81;55.02
78123;BME280;67376;44.802;10.332;2023-05-02T08:41:16;101017.41;;;19.79;54.55
78123;BME280;67376;44.802;10.332;2023-05-02T08:43:43;101016.56;;;19.79;54.56
78123;BME280;67376;44.802;10.332;2023-05-02T08:46:13;101007.84;;;19.77;54.65
78123;BME280;67376;44.802;10.332;2023-05-02T08:48:40;101017.63;;;19.78;54.70
78123;BME280;67376;44.802;10.332;2023-05-02T08:51:08;101020.34;;;19.78;55.51
78123;BME280;67376;44.802;10.332;2023-05-02T08:53:34;101027.63;;;19.77;55.47
78123;BME280;67376;44.802;10.332;2023-05-02T08:56:00;101027.41;;;19.79;54.47
78123;BME280;67376;44.802;10.332;2023-05-02T08:58:26;101026.38;;;19.80;54.96
78123;BME280;67376;44.802;10.332;2023-05-02T09:00:52;101031.78;;;19.80;55.20
78123;BME280;67376;44.802;10.332;2023-05-02T09:03:30;101029.28;;;19.78;55.58
78123;BME280;67376;44.802;10.332;2023-05-02T09:06:11;101040.97;;;19.79;54.81
78123;BME280;67376;44.802;10.332;2023-05-02T09:08:38;101036.38;;;19.79;55.48
78123;BME280;67376;44.802;10.332;2023-05-02T09:11:05;101041.78;;;19.79;55.19
78123;BME280;67376;44.802;10.332;2023-05-02T09:13:40;101038.25;;;19.79;55.09
78123;BME280;67376;44.802;10.332;2023-05-02T09:16:16;101047.22;;;19.79;54.83
78123;BME280;67376;44.802;10.332;2023-05-02T09:18:46;101044.50;;;19.79;55.50
78123;BME280;67376;44.802;10.332;2023-05-02T09:21:23;101053.47;;;19.80;55.54
78123;BME280;67376;44.802;10.332;2023-05-02T09:23:51;101052.63;;;19.79;55.19
78123;BME280;67376;44.802;10.332;2023-05-02T09:26:22;101051.81;;;19.79;54.86
78123;BME280;67376;44.802;10.332;2023-05-02T09:28:54;101056.16;;;19.80;55.48
78123;BME280;67376;44.802;10.332;2023-05-02T09:31:24;101048.94;;;19.74;55.53
78123;BME280;67376;44.802;10.332;2023-05-02T09:34:18;101061.81;;;19.78;54.98
78123;BME280;67376;44.802;10.332;2023-05-02T09:36:51;101068.28;;;19.77;54.66
78123;BME280;67376;44.802;10.332;2023-05-02T09:39:23;101069.09;;;19.78;55.12
78123;BME280;67376;44.802;10.332;2023-05-02T09:41:49;101070.16;;;19.77;55.54
78123;BME280;67376;44.802;10.332;2023-05-02T09:44:20;101076.41;;;19.77;54.66
78123;BME280;67376;44.802;10.332;2023-05-02T09:46:50;101072.66;;;19.78;54.59
78123;BME280;67376;44.802;10.332;2023-05-02T09:49:17;101079.13;;;19.77;55.42
78123;BME280;67376;44.802;10.332;2023-05-02T09:51:46;101081.00;;;19.77;55.08
78123;BME280;67376;44.802;10.332;2023-05-02T09:54:13;101076.63;;;19.76;55.14
78123;BME280;67376;44.802;10.332;2023-05-02T09:56:52;101076.41;;;19.77;55.60
78123;BME280;67376;44.802;10.332;2023-05-02T09:59:20;101074.75;;;19.76;55.07
78123;BME280;67376;44.802;10.332;2023-05-02T10:01:56;101081.00;;;19.77;55.49
78123;BME280;67376;44.802;10.332;2023-05-02T10:04:23;101079.34;;;19.76;54.89
78123;BME280;67376;44.802;10.332;2023-05-02T10:06:50;101078.50;;;19.75;54.94
78123;BME280;67376;44.802;10.332;2023-05-02T10:09:18;101091.84;;;19.77;54.52
78123;BME280;67376;44.802;10.332;2023-05-02T10:11:44;101088.28;;;19.76;55.01
78123;BME280;67376;44.802;10.332;2023-05-02T10:14:11;101087.47;;;19.76;54.69
78123;BME280;67376;44.802;10.332;2023-05-02T10:16:46;101087.47;;;19.76;55.43
78123;BME280;67376;44.802;10.332;2023-05-02T10:19:21;101088.28;;;19.76;54.63
78123;BME280;67376;44.802;10.332;2023-05-02T10:21:48;101082.88;;;19.76;55.62
78123;BME280;67376;44.802;10.332;2023-05-02T10:24:14;101077.69;;;19.75;54.97
78123;BME280;67376;44.802;10.332;2023-05-02T10:26:41;101075.81;;;19.75;54.56
78123;BME280;67376;44.802;10.332;2023-05-02T10:29:07;101072.03;;;19.76;55.46
78123;BME280;67376;44.802;10.332;2023-05-02T10:31:33;101085.38;;;19.78;54.69
78123;BME280;67376;44.802;10.332;2023-05-02T10:33:59;101081.81;;;19.77;55.34
78123;BME280;67376;44.802;10.332;2023-05-02T10:36:27;101086.41;;;19.77;55.11
78123;BME280;67376;44.802;10.332;2023-05-02T10:38:53;101085.38;;;19.78;55.14
78123;BME280;67376;44.802;10.332;2023-05-02T10:41:22;101087.25;;;19.77;54.93
78123;BME280;67376;44.802;10.332;2023-05-02T10:43:51;101087.47;;;19.76;54.73
78123;BME280;67376;44.802;10.332;2023-05-02T10:49:03;101098.31;;;19.76;55.51
78123;BME280;67376;44.802;10.332;2023-05-02T10:51:30;101092.06;;;19.75;55.17
78123;BME280;67376;44.802;10.332;2023-05-02T10:59:38;101094.09;;;19.80;54.63
78123;BME280;67376;44.802;10.332;2023-05-02T11:05:01;101081.59;;;19.79;55.06
78123;BME280;67376;44.802;10.332;2023-05-02T11:07:29;101080.78;;;19.78;55.38
78123;BME280;67376;44.802;10.332;2023-05-02T11:12:48;101088.69;;;19.80;54.61
78123;BME280;67376;44.802;10.332;2023-05-02T11:15:14;101084.91;;;19.81;55.25
78123;BME280;67376;44.802;10.332;2023-05-02T11:18:00;101081.38;;;19.81;54.43
78123;BME280;67376;44.802;10.332;2023-05-02T11:20:27;101076.19;;;19.79;54.65
78123;BME280;67376;44.802;10.332;2023-05-02T11:22:54;101082.22;;;19.81;55.13
78123;BME280;67376;44.802;10.332;2023-05-02T11:25:36;101079.50;;;19.81;55.33
78123;BME280;67376;44.802;10.332;2023-05-02T11:28:05;101076.78;;;19.81;54.49
78123;BME280;67376;44.802;10.332;2023-05-02T11:30:43;101082.22;;;19.81;55.06
78123;BME280;67376;44.802;10.332;2023-05-02T11:33:13;101074.91;;;19.82;54.53
78123;BME280;67376;44.802;10.332;2023-05-02T11:35:41;101074.69;;;19.83;54.55
78123;BME280;67376;44.802;10.332;2023-05-02T11:38:14;101079.28;;;19.83;54.61
78123;BME280;67376;44.802;10.332;2023-05-02T11:40:49;101080.94;;;19.84;55.20
78123;BME280;67376;44.802;10.332;2023-05-02T11:43:19;101078.44;;;19.82;55.23
78123;BME280;67376;44.802;10.332;2023-05-02T11:45:46;101069.28;;;19.83;54.37
78123;BME280;67376;44.802;10.332;2023-05-02T11:48:13;101085.75;;;19.82;55.19
78123;BME280;67376;44.802;10.332;2023-05-02T11:50:50;101074.91;;;19.82;54.40
78123;BME280;67376;44.802;10.332;2023-05-02T11:53:18;101066.78;;;19.82;54.93
78123;BME280;67376;44.802;10.332;2023-05-02T11:55:51;101074.31;;;19.79;55.35
78123;BME280;67376;44.802;10.332;2023-05-02T11:58:18;101073.25;;;19.81;55.01
78123;BME280;67376;44.802;10.332;2023-05-02T12:00:45;101071.81;;;19.78;55.29
78123;BME280;67376;44.802;10.332;2023-05-02T12:03:30;101077.84;;;19.80;55.08
78123;BME280;67376;44.802;10.332;2023-05-02T12:06:09;101081.16;;;19.82;54.53
78123;BME280;67376;44.802;10.332;2023-05-02T12:08:35;101067.00;;;19.80;54.38
78123;BME280;67376;44.802;10.332;2023-05-02T12:11:01;101074.09;;;19.81;55.13
78123;BME280;67376;44.802;10.332;2023-05-02T12:13:27;101080.56;;;19.80;55.31
78123;BME280;67376;44.802;10.332;2023-05-02T12:15:53;101075.97;;;19.81;54.89
78123;BME280;67376;44.802;10.332;2023-05-02T12:18:21;101080.56;;;19.80;54.87
78123;BME280;67376;44.802;10.332;2023-05-02T12:20:53;101081.38;;;19.81;54.32
78123;BME280;67376;44.802;10.332;2023-05-02T12:23:20;101084.31;;;19.79;54.78
78123;BME280;67376;44.802;10.332;2023-05-02T12:25:46;101092.81;;;19.83;54.64
78123;BME280;67376;44.802;10.332;2023-05-02T12:28:13;101086.41;;;19.77;54.45
78123;BME280;67376;44.802;10.332;2023-05-02T12:30:39;101094.94;;;19.81;54.42
78123;BME280;67376;44.802;10.332;2023-05-02T12:33:04;101095.16;;;19.79;55.32
78123;BME280;67376;44.802;10.332;2023-05-02T12:35:31;101092.22;;;19.81;55.20
78123;BME280;67376;44.802;10.332;2023-05-02T12:38:17;101099.50;;;19.80;55.27
78123;BME280;67376;44.802;10.332;2023-05-02T12:41:01;101105.75;;;19.81;55.21
78123;BME280;67376;44.802;10.332;2023-05-02T12:43:26;101094.94;;;19.81;54.72
78123;BME280;67376;44.802;10.332;2023-05-02T12:46:08;101105.75;;;19.81;54.37
78123;BME280;67376;44.802;10.332;2023-05-02T12:48:34;101107.41;;;19.82;55.19
78123;BME280;67376;44.802;10.332;2023-05-02T12:50:59;101108.47;;;19.81;54.37
78123;BME280;67376;44.802;10.332;2023-05-02T12:53:41;101103.28;;;19.79;54.40
78123;BME280;67376;44.802;10.332;2023-05-02T12:56:08;101104.56;;;19.76;54.92
78123;BME280;67376;44.802;10.332;2023-05-02T12:58:42;101110.56;;;19.78;54.38
78123;BME280;67376;44.802;10.332;2023-05-02T13:01:08;101109.75;;;19.78;54.53
78123;BME280;67376;44.802;10.332;2023-05-02T13:03:34;101106.22;;;19.77;54.75
78123;BME280;67376;44.802;10.332;2023-05-02T13:05:59;101104.56;;;19.76;55.29
78123;BME280;67376;44.802;10.332;2023-05-02T13:08:25;101097.25;;;19.77;54.61
78123;BME280;67376;44.802;10.332;2023-05-02T13:10:50;101102.66;;;19.77;54.33
78123;BME280;67376;44.802;10.332;2023-05-02T13:13:15;101110.81;;;19.77;54.95
78123;BME280;67376;44.802;10.332;2023-05-02T13:15:41;101104.56;;;19.76;54.92
78123;BME280;67376;44.802;10.332;2023-05-02T13:18:06;101102.66;;;19.77;54.85